sensor_id;sensor_type;location;lat;lon;timestamp;P1;durP1;ratioP1;P2;durP2;ratioP2
12721;SDS011;6425;50.316;8.114;2023-11-19T00:00:00;5.4;;;2;;
12721;SDS011;6425;50.316;8.114;2023-11-19T00:03:01;1.3;;;0.9;;
12721;SDS011;6425;50.316;8.114;2023-11-19T00:06:00;1.3;;;0.9;;
12721;SDS011;6425;50.316;8.114;2023-11-19T00:09:00;2.6;;;1;;
12721;SDS011;6425;50.316;8.114;2023-11-19T00:12:00;1.1;;;1;;
12721;SDS011;6425;50.316;8.114;2023-11-19T00:15:00;1.1;;;1;;
12721;SDS011;6425;50.316;8.114;2023-11-19T00:18:00;0.8;;;0.5;;
12721;SDS011;6425;50.316;8.114;2023-11-19T00:21:00;0.8;;;0.5;;
12721;SDS011;6425;50.316;8.114;2023-11-19T00:24:00;0.9;;;0.5;;
12721;SDS011;6425;50.316;8.114;2023-11-19T00:27:00;0.8;;;0.8;;
12721;SDS011;6425;50.316;8.114;2023-11-19T00:30:00;0.8;;;0.8;;
12721;SDS011;6425;50.316;8.114;2023-11-19T00:33:00;0.6;;;0.4;;
12721;SDS011;6425;50.316;8.114;2023-11-19T00:36:00;0.6;;;0.4;;
12721;SDS011;6425;50.316;8.114;2023-11-19T00:39:00;0.6;;;0.6;;
12721;SDS011;6425;50.316;8.114;2023-11-19T00:42:00;0.6;;;0.6;;
12721;SDS011;6425;50.316;8.114;2023-11-19T00:45:00;0.6;;;0.6;;
12721;SDS011;6425;50.316;8.114;2023-11-19T00:48:00;0.7;;;0.6;;
12721;SDS011;6425;50.316;8.114;2023-11-19T00:51:00;0.7;;;0.6;;
12721;SDS011;6425;50.316;8.114;2023-11-19T00:54:00;1.4;;;0.6;;
12721;SDS011;6425;50.316;8.114;2023-11-19T00:57:00;0.4;;;0.4;;
12721;SDS011;6425;50.316;8.114;2023-11-19T01:00:00;0.4;;;0.4;;
12721;SDS011;6425;50.316;8.114;2023-11-19T01:03:00;0.8;;;0.4;;
12721;SDS011;6425;50.316;8.114;2023-11-19T01:06:00;0.8;;;0.4;;
12721;SDS011;6425;50.316;8.114;2023-11-19T01:09:00;0.5;;;0.4;;
12721;SDS011;6425;50.316;8.114;2023-11-19T01:12:00;0.4;;;0.4;;
12721;SDS011;6425;50.316;8.114;2023-11-19T01:15:00;0.4;;;0.4;;
12721;SDS011;6425;50.316;8.114;2023-11-19T01:18:00;0.4;;;0.4;;
12721;SDS011;6425;50.316;8.114;2023-11-19T01:21:00;0.4;;;0.4;;
12721;SDS011;6425;50.316;8.114;2023-11-19T01:24:00;0.5;;;0.3;;
12721;SDS011;6425;50.316;8.114;2023-11-19T01:27:00;1.1;;;0.4;;
12721;SDS011;6425;50.316;8.114;2023-11-19T01:30:00;1.1;;;0.4;;
12721;SDS011;6425;50.316;8.114;2023-11-19T01:33:00;0.9;;;0.3;;
12721;SDS011;6425;50.316;8.114;2023-11-19T01:36:00;0.9;;;0.3;;
12721;SDS011;6425;50.316;8.114;2023-11-19T01:39:00;1.1;;;0.2;;
12721;SDS011;6425;50.316;8.114;2023-11-19T01:42:00;0.8;;;0.4;;
12721;SDS011;6425;50.316;8.114;2023-11-19T01:45:00;0.8;;;0.4;;
12721;SDS011;6425;50.316;8.114;2023-11-19T01:48:00;0.3;;;0.3;;
12721;SDS011;6425;50.316;8.114;2023-11-19T01:51:00;0.3;;;0.3;;
12721;SDS011;6425;50.316;8.114;2023-11-19T01:54:00;0.4;;;0.3;;
12721;SDS011;6425;50.316;8.114;2023-11-19T01:57:00;0.2;;;0.2;;
12721;SDS011;6425;50.316;8.114;2023-11-19T02:00:00;0.2;;;0.2;;
12721;SDS011;6425;50.316;8.114;2023-11-19T02:03:00;0.2;;;0.2;;
12721;SDS011;6425;50.316;8.114;2023-11-19T02:06:00;0.2;;;0.2;;
12721;SDS011;6425;50.316;8.114;2023-11-19T02:09:00;0.9;;;0.3;;
12721;SDS011;6425;50.316;8.114;2023-11-19T02:12:00;0.3;;;0.3;;
12721;SDS011;6425;50.316;8.114;2023-11-19T02:15:00;0.3;;;0.3;;
12721;SDS011;6425;50.316;8.114;2023-11-19T02:18:31;0.8;;;0.3;;
12721;SDS011;6425;50.316;8.114;2023-11-19T02:21:00;0.8;;;0.3;;
12721;SDS011;6425;50.316;8.114;2023-11-19T02:24:00;0.9;;;0.3;;
12721;SDS011;6425;50.316;8.114;2023-11-19T02:27:02;0.3;;;0.3;;
12721;SDS011;6425;50.316;8.114;2023-11-19T02:30:00;0.3;;;0.3;;
12721;SDS011;6425;50.316;8.114;2023-11-19T02:33:00;0.6;;;0.3;;
12721;SDS011;6425;50.316;8.114;2023-11-19T02:36:00;0.6;;;0.3;;
12721;SDS011;6425;50.316;8.114;2023-11-19T02:39:00;1.3;;;0.2;;
12721;SDS011;6425;50.316;8.114;2023-11-19T02:42:00;1.2;;;0.3;;
12721;SDS011;6425;50.316;8.114;2023-11-19T02:45:00;1.2;;;0.3;;
12721;SDS011;6425;50.316;8.114;2023-11-19T02:48:00;1.4;;;0.2;;
12721;SDS011;6425;50.316;8.114;2023-11-19T02:51:00;0.2;;;0.2;;
12721;SDS011;6425;50.316;8.114;2023-11-19T02:54:00;0.2;;;0.2;;
12721;SDS011;6425;50.316;8.114;2023-11-19T02:57:00;0.3;;;0.2;;
12721;SDS011;6425;50.316;8.114;2023-11-19T03:00:00;0.3;;;0.2;;
12721;SDS011;6425;50.316;8.114;2023-11-19T03:03:00;0.7;;;0.1;;
12721;SDS011;6425;50.316;8.114;2023-11-19T03:06:00;0.3;;;0.1;;
12721;SDS011;6425;50.316;8.114;2023-11-19T03:09:00;0.3;;;0.1;;
12721;SDS011;6425;50.316;8.114;2023-11-19T03:12:00;0.5;;;0.1;;
12721;SDS011;6425;50.316;8.114;2023-11-19T03:15:00;0.5;;;0.1;;
12721;SDS011;6425;50.316;8.114;2023-11-19T03:18:00;0.4;;;0.2;;
12721;SDS011;6425;50.316;8.114;2023-11-19T03:21:00;0.2;;;0.2;;
12721;SDS011;6425;50.316;8.114;2023-11-19T03:24:00;0.2;;;0.2;;
12721;SDS011;6425;50.316;8.114;2023-11-19T03:27:00;0.2;;;0.1;;
12721;SDS011;6425;50.316;8.114;2023-11-19T03:30:00;0.2;;;0.1;;
12721;SDS011;6425;50.316;8.114;2023-11-19T03:33:00;0.4;;;0.1;;
12721;SDS011;6425;50.316;8.114;2023-11-19T03:36:00;1.3;;;0.1;;
12721;SDS011;6425;50.316;8.114;2023-11-19T03:39:00;1.3;;;0.1;;
12721;SDS011;6425;50.316;8.114;2023-11-19T03:42:00;1.1;;;0.1;;
12721;SDS011;6425;50.316;8.114;2023-11-19T03:45:00;1.1;;;0.1;;
12721;SDS011;6425;50.316;8.114;2023-11-19T03:48:00;0.2;;;0.1;;
12721;SDS011;6425;50.316;8.114;2023-11-19T03:51:00;1.1;;;0.2;;
12721;SDS011;6425;50.316;8.114;2023-11-19T03:54:00;1.1;;;0.2;;
12721;SDS011;6425;50.316;8.114;2023-11-19T03:57:00;0.1;;;0.1;;
12721;SDS011;6425;50.316;8.114;2023-11-19T04:00:00;0.1;;;0.1;;
12721;SDS011;6425;50.316;8.114;2023-11-19T04:03:00;0.3;;;0.1;;
12721;SDS011;6425;50.316;8.114;2023-11-19T04:06:00;0.2;;;0.1;;
12721;SDS011;6425;50.316;8.114;2023-11-19T04:09:00;0.2;;;0.1;;
12721;SDS011;6425;50.316;8.114;2023-11-19T04:12:00;0.1;;;0.1;;
12721;SDS011;6425;50.316;8.114;2023-11-19T04:15:00;0.1;;;0.1;;
12721;SDS011;6425;50.316;8.114;2023-11-19T04:18:00;0.8;;;0.1;;
12721;SDS011;6425;50.316;8.114;2023-11-19T04:21:00;0.1;;;0;;
12721;SDS011;6425;50.316;8.114;2023-11-19T04:24:00;0.1;;;0;;
12721;SDS011;6425;50.316;8.114;2023-11-19T04:27:00;0.1;;;0.1;;
12721;SDS011;6425;50.316;8.114;2023-11-19T04:30:00;0.1;;;0.1;;
12721;SDS011;6425;50.316;8.114;2023-11-19T04:33:00;0.1;;;0.1;;
12721;SDS011;6425;50.316;8.114;2023-11-19T04:36:00;2.2;;;0;;
12721;SDS011;6425;50.316;8.114;2023-11-19T04:39:00;2.2;;;0;;
12721;SDS011;6425;50.316;8.114;2023-11-19T04:42:00;0.7;;;0.1;;
12721;SDS011;6425;50.316;8.114;2023-11-19T04:45:00;0.7;;;0.1;;
12721;SDS011;6425;50.316;8.114;2023-11-19T04:48:00;0.1;;;0;;
12721;SDS011;6425;50.316;8.114;2023-11-19T04:51:00;0.2;;;0.1;;
12721;SDS011;6425;50.316;8.114;2023-11-19T04:54:00;0.2;;;0.1;;
12721;SDS011;6425;50.316;8.114;2023-11-19T04:57:00;0.1;;;0.1;;
12721;SDS011;6425;50.316;8.114;2023-11-19T05:00:00;0.1;;;0.1;;
12721;SDS011;6425;50.316;8.114;2023-11-19T05:03:00;0.2;;;0.1;;
12721;SDS011;6425;50.316;8.114;2023-11-19T05:06:00;0.1;;;0.1;;
12721;SDS011;6425;50.316;8.114;2023-11-19T05:09:00;0.1;;;0.1;;
12721;SDS011;6425;50.316;8.114;2023-11-19T05:12:00;0.2;;;0.1;;
12721;SDS011;6425;50.316;8.114;2023-11-19T05:15:00;0.2;;;0.1;;
12721;SDS011;6425;50.316;8.114;2023-11-19T05:18:00;0.2;;;0.1;;
12721;SDS011;6425;50.316;8.114;2023-11-19T05:21:00;1;;;0.2;;
12721;SDS011;6425;50.316;8.114;2023-11-19T05:24:00;1;;;0.2;;
12721;SDS011;6425;50.316;8.114;2023-11-19T05:27:00;0.4;;;0.1;;
12721;SDS011;6425;50.316;8.114;2023-11-19T05:30:00;0.4;;;0.1;;
12721;SDS011;6425;50.316;8.114;2023-11-19T05:33:00;0.7;;;0.1;;
12721;SDS011;6425;50.316;8.114;2023-11-19T05:36:00;0.2;;;0.1;;
12721;SDS011;6425;50.316;8.114;2023-11-19T05:39:00;0.2;;;0.1;;
12721;SDS011;6425;50.316;8.114;2023-11-19T05:42:00;0.6;;;0.1;;
12721;SDS011;6425;50.316;8.114;2023-11-19T05:45:00;0.6;;;0.1;;
12721;SDS011;6425;50.316;8.114;2023-11-19T05:48:00;0.1;;;0.1;;
12721;SDS011;6425;50.316;8.114;2023-11-19T05:51:00;0.1;;;0.1;;
12721;SDS011;6425;50.316;8.114;2023-11-19T05:54:00;0.1;;;0.1;;
12721;SDS011;6425;50.316;8.114;2023-11-19T05:57:00;0.2;;;0.1;;
12721;SDS011;6425;50.316;8.114;2023-11-19T06:00:00;0.2;;;0.1;;
12721;SDS011;6425;50.316;8.114;2023-11-19T06:03:00;0.2;;;0.1;;
12721;SDS011;6425;50.316;8.114;2023-11-19T06:06:00;1.1;;;0.1;;
12721;SDS011;6425;50.316;8.114;2023-11-19T06:09:00;1.1;;;0.1;;
12721;SDS011;6425;50.316;8.114;2023-11-19T06:12:00;0.4;;;0.1;;
12721;SDS011;6425;50.316;8.114;2023-11-19T06:15:00;0.4;;;0.1;;
12721;SDS011;6425;50.316;8.114;2023-11-19T06:18:00;0.4;;;0.2;;
12721;SDS011;6425;50.316;8.114;2023-11-19T06:21:00;0.7;;;0.2;;
12721;SDS011;6425;50.316;8.114;2023-11-19T06:24:00;0.7;;;0.2;;
12721;SDS011;6425;50.316;8.114;2023-11-19T06:27:00;2.7;;;0.3;;
12721;SDS011;6425;50.316;8.114;2023-11-19T06:30:00;1.2;;;0.3;;
12721;SDS011;6425;50.316;8.114;2023-11-19T06:33:00;0.8;;;0.3;;
12721;SDS011;6425;50.316;8.114;2023-11-19T06:36:00;0.6;;;0.2;;
12721;SDS011;6425;50.316;8.114;2023-11-19T06:39:00;0.6;;;0.2;;
12721;SDS011;6425;50.316;8.114;2023-11-19T06:42:00;0.4;;;0.3;;
12721;SDS011;6425;50.316;8.114;2023-11-19T06:45:00;3.1;;;0.5;;
12721;SDS011;6425;50.316;8.114;2023-11-19T06:48:00;3.1;;;0.5;;
12721;SDS011;6425;50.316;8.114;2023-11-19T06:51:00;1.2;;;0.4;;
12721;SDS011;6425;50.316;8.114;2023-11-19T06:54:00;1.2;;;0.4;;
12721;SDS011;6425;50.316;8.114;2023-11-19T06:57:00;1.6;;;0.4;;
12721;SDS011;6425;50.316;8.114;2023-11-19T07:00:00;1.1;;;0.4;;
12721;SDS011;6425;50.316;8.114;2023-11-19T07:03:00;1.1;;;0.4;;
12721;SDS011;6425;50.316;8.114;2023-11-19T07:06:00;2.1;;;0.5;;
12721;SDS011;6425;50.316;8.114;2023-11-19T07:09:00;2.1;;;0.5;;
12721;SDS011;6425;50.316;8.114;2023-11-19T07:12:00;1.5;;;0.4;;
12721;SDS011;6425;50.316;8.114;2023-11-19T07:15:00;1.1;;;0.4;;
12721;SDS011;6425;50.316;8.114;2023-11-19T07:18:00;1.1;;;0.4;;
12721;SDS011;6425;50.316;8.114;2023-11-19T07:21:00;0.4;;;0.4;;
12721;SDS011;6425;50.316;8.114;2023-11-19T07:24:00;0.4;;;0.4;;
12721;SDS011;6425;50.316;8.114;2023-11-19T07:27:00;1.3;;;0.4;;
12721;SDS011;6425;50.316;8.114;2023-11-19T07:30:00;2.6;;;0.5;;
12721;SDS011;6425;50.316;8.114;2023-11-19T07:33:00;2.6;;;0.5;;
12721;SDS011;6425;50.316;8.114;2023-11-19T07:36:00;5.4;;;0.7;;
12721;SDS011;6425;50.316;8.114;2023-11-19T07:39:00;5.4;;;0.7;;
12721;SDS011;6425;50.316;8.114;2023-11-19T07:42:00;3;;;0.5;;
12721;SDS011;6425;50.316;8.114;2023-11-19T07:45:00;2.2;;;0.6;;
12721;SDS011;6425;50.316;8.114;2023-11-19T07:48:00;2.2;;;0.6;;
12721;SDS011;6425;50.316;8.114;2023-11-19T07:51:00;1.6;;;0.7;;
12721;SDS011;6425;50.316;8.114;2023-11-19T07:54:00;1.6;;;0.7;;
12721;SDS011;6425;50.316;8.114;2023-11-19T07:57:00;2.2;;;0.6;;
12721;SDS011;6425;50.316;8.114;2023-11-19T08:00:00;6;;;0.7;;
12721;SDS011;6425;50.316;8.114;2023-11-19T08:03:00;6;;;0.7;;
12721;SDS011;6425;50.316;8.114;2023-11-19T08:06:00;4;;;1;;
12721;SDS011;6425;50.316;8.114;2023-11-19T08:09:00;4;;;1;;
12721;SDS011;6425;50.316;8.114;2023-11-19T08:12:00;3.2;;;0.9;;
12721;SDS011;6425;50.316;8.114;2023-11-19T08:15:00;4.5;;;1;;
12721;SDS011;6425;50.316;8.114;2023-11-19T08:18:00;4.5;;;1;;
12721;SDS011;6425;50.316;8.114;2023-11-19T08:21:00;2.8;;;1.2;;
12721;SDS011;6425;50.316;8.114;2023-11-19T08:24:00;2.8;;;1.2;;
12721;SDS011;6425;50.316;8.114;2023-11-19T08:27:00;4.5;;;1.4;;
12721;SDS011;6425;50.316;8.114;2023-11-19T08:30:00;7.2;;;1.6;;
12721;SDS011;6425;50.316;8.114;2023-11-19T08:33:00;7.2;;;1.6;;
12721;SDS011;6425;50.316;8.114;2023-11-19T08:36:00;4.2;;;1;;
12721;SDS011;6425;50.316;8.114;2023-11-19T08:39:00;4.2;;;1;;
12721;SDS011;6425;50.316;8.114;2023-11-19T08:42:00;3.8;;;1.1;;
12721;SDS011;6425;50.316;8.114;2023-11-19T08:45:00;4.7;;;1.2;;
12721;SDS011;6425;50.316;8.114;2023-11-19T08:48:00;4.7;;;1.2;;
12721;SDS011;6425;50.316;8.114;2023-11-19T08:51:00;3.6;;;1.3;;
12721;SDS011;6425;50.316;8.114;2023-11-19T08:54:00;3.6;;;1.3;;
12721;SDS011;6425;50.316;8.114;2023-11-19T08:57:00;4.3;;;1.6;;
12721;SDS011;6425;50.316;8.114;2023-11-19T09:00:00;3.6;;;1.2;;
12721;SDS011;6425;50.316;8.114;2023-11-19T09:03:00;3.6;;;1.2;;
12721;SDS011;6425;50.316;8.114;2023-11-19T09:06:00;6.8;;;1.6;;
12721;SDS011;6425;50.316;8.114;2023-11-19T09:09:00;6.8;;;1.6;;
12721;SDS011;6425;50.316;8.114;2023-11-19T09:12:00;5.4;;;1.5;;
12721;SDS011;6425;50.316;8.114;2023-11-19T09:15:00;6;;;2.1;;
12721;SDS011;6425;50.316;8.114;2023-11-19T09:18:00;6;;;2.1;;
12721;SDS011;6425;50.316;8.114;2023-11-19T09:21:00;9.4;;;2.8;;
12721;SDS011;6425;50.316;8.114;2023-11-19T09:24:00;9.4;;;2.8;;
12721;SDS011;6425;50.316;8.114;2023-11-19T09:27:00;6.2;;;2.5;;
12721;SDS011;6425;50.316;8.114;2023-11-19T09:30:00;4.3;;;1.9;;
12721;SDS011;6425;50.316;8.114;2023-11-19T09:33:00;4.3;;;1.9;;
12721;SDS011;6425;50.316;8.114;2023-11-19T09:36:00;9.5;;;3.9;;
12721;SDS011;6425;50.316;8.114;2023-11-19T09:39:00;9.5;;;3.9;;
12721;SDS011;6425;50.316;8.114;2023-11-19T09:42:00;8.8;;;2.7;;
12721;SDS011;6425;50.316;8.114;2023-11-19T09:45:00;6.3;;;3;;
12721;SDS011;6425;50.316;8.114;2023-11-19T09:48:00;6.3;;;3;;
12721;SDS011;6425;50.316;8.114;2023-11-19T09:51:00;5.4;;;3.1;;
12721;SDS011;6425;50.316;8.114;2023-11-19T09:54:00;5.4;;;3.1;;
12721;SDS011;6425;50.316;8.114;2023-11-19T09:57:00;5.9;;;3.2;;
12721;SDS011;6425;50.316;8.114;2023-11-19T10:00:00;8.2;;;4.1;;
12721;SDS011;6425;50.316;8.114;2023-11-19T10:03:00;8.2;;;4.1;;
12721;SDS011;6425;50.316;8.114;2023-11-19T10:06:00;7.3;;;2.6;;
12721;SDS011;6425;50.316;8.114;2023-11-19T10:09:00;7.3;;;2.6;;
12721;SDS011;6425;50.316;8.114;2023-11-19T10:12:00;6.6;;;2.7;;
12721;SDS011;6425;50.316;8.114;2023-11-19T10:15:00;6.5;;;2.6;;
12721;SDS011;6425;50.316;8.114;2023-11-19T10:18:00;6.5;;;2.6;;
12721;SDS011;6425;50.316;8.114;2023-11-19T10:21:00;5.6;;;3;;
12721;SDS011;6425;50.316;8.114;2023-11-19T10:24:00;5.6;;;3.1;;
12721;SDS011;6425;50.316;8.114;2023-11-19T10:27:00;5.7;;;3.2;;
12721;SDS011;6425;50.316;8.114;2023-11-19T10:30:00;3.8;;;3;;
12721;SDS011;6425;50.316;8.114;2023-11-19T10:33:04;3.8;;;3;;
12721;SDS011;6425;50.316;8.114;2023-11-19T10:36:00;10.1;;;3.6;;
12721;SDS011;6425;50.316;8.114;2023-11-19T10:39:00;9.4;;;3.3;;
12721;SDS011;6425;50.316;8.114;2023-11-19T10:42:05;9.4;;;3.3;;
12721;SDS011;6425;50.316;8.114;2023-11-19T10:45:00;4.2;;;2.2;;
12721;SDS011;6425;50.316;8.114;2023-11-19T10:48:00;4.2;;;2.2;;
12721;SDS011;6425;50.316;8.114;2023-11-19T10:51:00;9.8;;;3.1;;
12721;SDS011;6425;50.316;8.114;2023-11-19T10:54:02;10.7;;;3.8;;
12721;SDS011;6425;50.316;8.114;2023-11-19T10:57:00;10.7;;;3.8;;
12721;SDS011;6425;50.316;8.114;2023-11-19T11:00:00;7;;;3.9;;
12721;SDS011;6425;50.316;8.114;2023-11-19T11:03:00;7;;;3.9;;
12721;SDS011;6425;50.316;8.114;2023-11-19T11:06:00;9.5;;;3.5;;
12721;SDS011;6425;50.316;8.114;2023-11-19T11:09:00;8;;;3.2;;
12721;SDS011;6425;50.316;8.114;2023-11-19T11:12:00;8;;;3.2;;
12721;SDS011;6425;50.316;8.114;2023-11-19T11:15:00;6.9;;;2.7;;
12721;SDS011;6425;50.316;8.114;2023-11-19T11:18:00;6.9;;;2.7;;
12721;SDS011;6425;50.316;8.114;2023-11-19T11:21:00;10.7;;;4.1;;
12721;SDS011;6425;50.316;8.114;2023-11-19T11:24:05;10.4;;;2.4;;
12721;SDS011;6425;50.316;8.114;2023-11-19T11:27:03;10.4;;;2.4;;
12721;SDS011;6425;50.316;8.114;2023-11-19T11:30:01;9.7;;;3.7;;
12721;SDS011;6425;50.316;8.114;2023-11-19T11:33:04;9.7;;;3.7;;
12721;SDS011;6425;50.316;8.114;2023-11-19T11:36:03;11.1;;;3.5;;
12721;SDS011;6425;50.316;8.114;2023-11-19T11:39:00;8.1;;;3.3;;
12721;SDS011;6425;50.316;8.114;2023-11-19T11:42:32;8.1;;;3.3;;
12721;SDS011;6425;50.316;8.114;2023-11-19T11:45:00;10.7;;;3.6;;
12721;SDS011;6425;50.316;8.114;2023-11-19T11:48:04;10.7;;;3.6;;
12721;SDS011;6425;50.316;8.114;2023-11-19T11:51:00;3.7;;;2.4;;
12721;SDS011;6425;50.316;8.114;2023-11-19T11:54:00;4.8;;;2.4;;
12721;SDS011;6425;50.316;8.114;2023-11-19T11:57:01;4.8;;;2.4;;
12721;SDS011;6425;50.316;8.114;2023-11-19T12:00:02;8.3;;;3.6;;
12721;SDS011;6425;50.316;8.114;2023-11-19T12:03:00;8.3;;;3.6;;
12721;SDS011;6425;50.316;8.114;2023-11-19T12:06:00;4.6;;;2.6;;
12721;SDS011;6425;50.316;8.114;2023-11-19T12:09:00;5.2;;;2.7;;
12721;SDS011;6425;50.316;8.114;2023-11-19T12:12:07;5.2;;;2.7;;
12721;SDS011;6425;50.316;8.114;2023-11-19T12:15:02;4.8;;;2.2;;
12721;SDS011;6425;50.316;8.114;2023-11-19T12:18:00;4.8;;;2.2;;
12721;SDS011;6425;50.316;8.114;2023-11-19T12:21:00;9.6;;;2.8;;
12721;SDS011;6425;50.316;8.114;2023-11-19T12:24:00;8.8;;;3;;
12721;SDS011;6425;50.316;8.114;2023-11-19T12:27:00;8.8;;;3;;
12721;SDS011;6425;50.316;8.114;2023-11-19T12:30:00;4.8;;;2.1;;
12721;SDS011;6425;50.316;8.114;2023-11-19T12:33:00;4.8;;;2.1;;
12721;SDS011;6425;50.316;8.114;2023-11-19T12:36:00;7.8;;;3.2;;
12721;SDS011;6425;50.316;8.114;2023-11-19T12:39:00;3.8;;;1.9;;
12721;SDS011;6425;50.316;8.114;2023-11-19T12:42:00;3.8;;;1.9;;
12721;SDS011;6425;50.316;8.114;2023-11-19T12:45:00;6.6;;;3.7;;
12721;SDS011;6425;50.316;8.114;2023-11-19T12:48:07;6.6;;;3.7;;
12721;SDS011;6425;50.316;8.114;2023-11-19T12:51:00;7.5;;;2.7;;
12721;SDS011;6425;50.316;8.114;2023-11-19T12:54:00;5.3;;;3.3;;
12721;SDS011;6425;50.316;8.114;2023-11-19T12:57:00;5.3;;;3.3;;
12721;SDS011;6425;50.316;8.114;2023-11-19T13:00:00;8.8;;;3.8;;
12721;SDS011;6425;50.316;8.114;2023-11-19T13:03:00;8.8;;;3.8;;
12721;SDS011;6425;50.316;8.114;2023-11-19T13:06:01;5.4;;;2.7;;
12721;SDS011;6425;50.316;8.114;2023-11-19T13:09:00;7.5;;;3.5;;
12721;SDS011;6425;50.316;8.114;2023-11-19T13:12:00;7.5;;;3.5;;
12721;SDS011;6425;50.316;8.114;2023-11-19T13:15:00;7.3;;;4;;
12721;SDS011;6425;50.316;8.114;2023-11-19T13:18:00;7.3;;;4;;
12721;SDS011;6425;50.316;8.114;2023-11-19T13:21:00;7.3;;;3.8;;
12721;SDS011;6425;50.316;8.114;2023-11-19T13:24:00;7.2;;;3;;
12721;SDS011;6425;50.316;8.114;2023-11-19T13:27:00;7.2;;;3;;
12721;SDS011;6425;50.316;8.114;2023-11-19T13:30:00;5.9;;;2.2;;
12721;SDS011;6425;50.316;8.114;2023-11-19T13:33:00;5.9;;;2.2;;
12721;SDS011;6425;50.316;8.114;2023-11-19T13:36:00;3.2;;;2.2;;
12721;SDS011;6425;50.316;8.114;2023-11-19T13:39:00;4.9;;;2.6;;
12721;SDS011;6425;50.316;8.114;2023-11-19T13:42:00;4.9;;;2.6;;
12721;SDS011;6425;50.316;8.114;2023-11-19T13:45:00;5.6;;;2.6;;
12721;SDS011;6425;50.316;8.114;2023-11-19T13:48:00;5.6;;;2.6;;
12721;SDS011;6425;50.316;8.114;2023-11-19T13:51:00;6.4;;;2.8;;
12721;SDS011;6425;50.316;8.114;2023-11-19T13:54:00;8.2;;;2.8;;
12721;SDS011;6425;50.316;8.114;2023-11-19T13:57:00;8.2;;;2.8;;
12721;SDS011;6425;50.316;8.114;2023-11-19T14:00:00;6.5;;;2.5;;
12721;SDS011;6425;50.316;8.114;2023-11-19T14:03:00;6.5;;;2.5;;
12721;SDS011;6425;50.316;8.114;2023-11-19T14:06:00;7.9;;;2.7;;
12721;SDS011;6425;50.316;8.114;2023-11-19T14:09:00;5.3;;;2.1;;
12721;SDS011;6425;50.316;8.114;2023-11-19T14:12:00;5.3;;;2.1;;
12721;SDS011;6425;50.316;8.114;2023-11-19T14:15:00;4.5;;;2.5;;
12721;SDS011;6425;50.316;8.114;2023-11-19T14:18:00;4.5;;;2.5;;
12721;SDS011;6425;50.316;8.114;2023-11-19T14:21:00;3.3;;;2.2;;
12721;SDS011;6425;50.316;8.114;2023-11-19T14:24:00;5.9;;;2.1;;
12721;SDS011;6425;50.316;8.114;2023-11-19T14:27:00;5.9;;;2.1;;
12721;SDS011;6425;50.316;8.114;2023-11-19T14:30:00;4.4;;;2.1;;
12721;SDS011;6425;50.316;8.114;2023-11-19T14:33:00;4.4;;;2.1;;
12721;SDS011;6425;50.316;8.114;2023-11-19T14:36:00;4.4;;;2.8;;
12721;SDS011;6425;50.316;8.114;2023-11-19T14:39:00;5.5;;;3.2;;
12721;SDS011;6425;50.316;8.114;2023-11-19T14:42:00;5.5;;;3.2;;
12721;SDS011;6425;50.316;8.114;2023-11-19T14:45:00;4.1;;;2;;
12721;SDS011;6425;50.316;8.114;2023-11-19T14:48:00;6.1;;;2.3;;
12721;SDS011;6425;50.316;8.114;2023-11-19T14:51:00;6.1;;;2.3;;
12721;SDS011;6425;50.316;8.114;2023-11-19T14:54:00;3.9;;;2.1;;
12721;SDS011;6425;50.316;8.114;2023-11-19T14:57:00;3.9;;;2.1;;
12721;SDS011;6425;50.316;8.114;2023-11-19T15:00:00;7.3;;;2.3;;
12721;SDS011;6425;50.316;8.114;2023-11-19T15:03:00;7.7;;;3;;
12721;SDS011;6425;50.316;8.114;2023-11-19T15:06:00;7.7;;;3;;
12721;SDS011;6425;50.316;8.114;2023-11-19T15:09:00;6.2;;;2.6;;
12721;SDS011;6425;50.316;8.114;2023-11-19T15:12:00;6.2;;;2.6;;
12721;SDS011;6425;50.316;8.114;2023-11-19T15:15:00;6.1;;;2.3;;
12721;SDS011;6425;50.316;8.114;2023-11-19T15:18:00;5.5;;;2.2;;
12721;SDS011;6425;50.316;8.114;2023-11-19T15:21:00;5.5;;;2.2;;
12721;SDS011;6425;50.316;8.114;2023-11-19T15:24:00;5.6;;;2.5;;
12721;SDS011;6425;50.316;8.114;2023-11-19T15:27:00;5.6;;;2.5;;
12721;SDS011;6425;50.316;8.114;2023-11-19T15:30:00;6;;;2.9;;
12721;SDS011;6425;50.316;8.114;2023-11-19T15:33:00;6.3;;;2.1;;
12721;SDS011;6425;50.316;8.114;2023-11-19T15:36:00;6.3;;;2.1;;
12721;SDS011;6425;50.316;8.114;2023-11-19T15:39:00;11.5;;;2.6;;
12721;SDS011;6425;50.316;8.114;2023-11-19T15:42:00;11.5;;;2.6;;
12721;SDS011;6425;50.316;8.114;2023-11-19T15:45:00;6;;;2.7;;
12721;SDS011;6425;50.316;8.114;2023-11-19T15:48:00;13.3;;;2.1;;
12721;SDS011;6425;50.316;8.114;2023-11-19T15:51:00;13.3;;;2.1;;
12721;SDS011;6425;50.316;8.114;2023-11-19T15:54:00;5.3;;;2.1;;
12721;SDS011;6425;50.316;8.114;2023-11-19T15:57:00;5.3;;;2.1;;
12721;SDS011;6425;50.316;8.114;2023-11-19T16:00:00;5.3;;;2.4;;
12721;SDS011;6425;50.316;8.114;2023-11-19T16:03:00;8.1;;;3.1;;
12721;SDS011;6425;50.316;8.114;2023-11-19T16:06:00;8.1;;;3.1;;
12721;SDS011;6425;50.316;8.114;2023-11-19T16:09:00;6;;;3.2;;
12721;SDS011;6425;50.316;8.114;2023-11-19T16:12:00;6;;;3.2;;
12721;SDS011;6425;50.316;8.114;2023-11-19T16:15:00;4;;;2.1;;
12721;SDS011;6425;50.316;8.114;2023-11-19T16:18:00;8.1;;;3.2;;
12721;SDS011;6425;50.316;8.114;2023-11-19T16:21:00;8.1;;;3.2;;
12721;SDS011;6425;50.316;8.114;2023-11-19T16:24:00;5.6;;;2.9;;
12721;SDS011;6425;50.316;8.114;2023-11-19T16:27:00;5.6;;;2.9;;
12721;SDS011;6425;50.316;8.114;2023-11-19T16:30:00;8.3;;;2.9;;
12721;SDS011;6425;50.316;8.114;2023-11-19T16:33:00;7.3;;;2.6;;
12721;SDS011;6425;50.316;8.114;2023-11-19T16:36:00;7.3;;;2.6;;
12721;SDS011;6425;50.316;8.114;2023-11-19T16:39:00;14.8;;;3.2;;
12721;SDS011;6425;50.316;8.114;2023-11-19T16:42:00;14.8;;;3.2;;
12721;SDS011;6425;50.316;8.114;2023-11-19T16:45:00;9.7;;;2.1;;
12721;SDS011;6425;50.316;8.114;2023-11-19T16:48:00;4.7;;;1.7;;
12721;SDS011;6425;50.316;8.114;2023-11-19T16:51:00;4.7;;;1.7;;
12721;SDS011;6425;50.316;8.114;2023-11-19T16:54:00;10.8;;;3.2;;
12721;SDS011;6425;50.316;8.114;2023-11-19T16:57:00;10.8;;;3.2;;
12721;SDS011;6425;50.316;8.114;2023-11-19T17:00:00;7.8;;;3.1;;
12721;SDS011;6425;50.316;8.114;2023-11-19T17:03:00;8.7;;;3.4;;
12721;SDS011;6425;50.316;8.114;2023-11-19T17:06:00;8.7;;;3.4;;
12721;SDS011;6425;50.316;8.114;2023-11-19T17:09:00;4.6;;;3.2;;
12721;SDS011;6425;50.316;8.114;2023-11-19T17:12:00;4.6;;;3.2;;
12721;SDS011;6425;50.316;8.114;2023-11-19T17:15:00;8.4;;;3.7;;
12721;SDS011;6425;50.316;8.114;2023-11-19T17:18:00;9.9;;;3.2;;
12721;SDS011;6425;50.316;8.114;2023-11-19T17:21:00;9.9;;;3.2;;
12721;SDS011;6425;50.316;8.114;2023-11-19T17:24:00;5.6;;;2.4;;
12721;SDS011;6425;50.316;8.114;2023-11-19T17:27:00;5.6;;;2.4;;
12721;SDS011;6425;50.316;8.114;2023-11-19T17:30:00;12.1;;;3.1;;
12721;SDS011;6425;50.316;8.114;2023-11-19T17:33:00;7.9;;;2.1;;
12721;SDS011;6425;50.316;8.114;2023-11-19T17:36:00;7.9;;;2.1;;
12721;SDS011;6425;50.316;8.114;2023-11-19T17:39:00;9.6;;;2.4;;
12721;SDS011;6425;50.316;8.114;2023-11-19T17:42:00;9.6;;;2.4;;
12721;SDS011;6425;50.316;8.114;2023-11-19T17:45:00;6.9;;;2.1;;
12721;SDS011;6425;50.316;8.114;2023-11-19T17:48:00;14.3;;;2.8;;
12721;SDS011;6425;50.316;8.114;2023-11-19T17:51:00;14.3;;;2.8;;
12721;SDS011;6425;50.316;8.114;2023-11-19T17:54:00;6.6;;;2.6;;
12721;SDS011;6425;50.316;8.114;2023-11-19T17:57:00;6.6;;;2.6;;
12721;SDS011;6425;50.316;8.114;2023-11-19T18:00:00;9.3;;;2.6;;
12721;SDS011;6425;50.316;8.114;2023-11-19T18:03:00;6.2;;;2.2;;
12721;SDS011;6425;50.316;8.114;2023-11-19T18:06:00;6.2;;;2.2;;
12721;SDS011;6425;50.316;8.114;2023-11-19T18:09:00;14.7;;;2.7;;
12721;SDS011;6425;50.316;8.114;2023-11-19T18:12:00;14.7;;;2.7;;
12721;SDS011;6425;50.316;8.114;2023-11-19T18:15:00;7.6;;;2.7;;
12721;SDS011;6425;50.316;8.114;2023-11-19T18:18:00;7.7;;;3.1;;
12721;SDS011;6425;50.316;8.114;2023-11-19T18:21:00;7.7;;;3.1;;
12721;SDS011;6425;50.316;8.114;2023-11-19T18:24:00;9.4;;;2.7;;
12721;SDS011;6425;50.316;8.114;2023-11-19T18:27:00;9.4;;;2.7;;
12721;SDS011;6425;50.316;8.114;2023-11-19T18:30:00;9.1;;;2.8;;
12721;SDS011;6425;50.316;8.114;2023-11-19T18:33:00;6.6;;;2.2;;
12721;SDS011;6425;50.316;8.114;2023-11-19T18:36:01;6.6;;;2.2;;
12721;SDS011;6425;50.316;8.114;2023-11-19T18:39:00;4.7;;;1.6;;
12721;SDS011;6425;50.316;8.114;2023-11-19T18:42:00;6.1;;;3.4;;
12721;SDS011;6425;50.316;8.114;2023-11-19T18:45:00;6.1;;;3.4;;
12721;SDS011;6425;50.316;8.114;2023-11-19T18:48:00;5.9;;;2.4;;
12721;SDS011;6425;50.316;8.114;2023-11-19T18:51:00;5.9;;;2.4;;
12721;SDS011;6425;50.316;8.114;2023-11-19T18:54:00;4.8;;;2.4;;
12721;SDS011;6425;50.316;8.114;2023-11-19T18:57:00;8.9;;;3.2;;